Leesburg, FL

2:23 PM EDT on April 25, 2015 (GMT -0400)
Cypress Creek | | Change Station
CLOSE
Current Station
Personal Weather Station
Location: Leesburg, FL
Elevation: 82 ft
Nearby Weather Stations

Elev 82 ft 28.77 °N, 81.88 °W | Updated 13 seconds ago

Partly Cloudy
Partly Cloudy
87.1 °F
Feels Like 94 °F
N
1.3
Wind Variable Wind from SSE
Gusts 2.5 mph

Today
High -- | Low -- °F
--% Chance of Precip.
Yesterday
High -- | Low -- °F
Precip. -- in
6:52 AM 7:59 PM
Waxing Crescent, 48% visible
Pressure 29.89 in
Visibility 10.0 miles
Clouds Scattered Clouds 4300 ft
Mostly Cloudy 5000 ft
Mostly Cloudy 6000 ft
Heat Index 94 °F
Dew Point 72 °F
Humidity 62%
Rainfall 0.00 in
Snow Depth Not available.
UV 0.0 out of 12
Pollen 8.40 out of 12
Air Quality Not available.
Flu Activity Local Activity
METAR KLEE 251753Z 26008G17KT 10SM SCT043 BKN050 BKN060 30/21 A2989 RMK AO2 SLP120 T03000211 10306 20228 58024

More Conditions Fewer Conditions

Pressure 29.89 in
Visibility 10.0 miles
Clouds Scattered Clouds 4300 ft
Mostly Cloudy 5000 ft
Mostly Cloudy 6000 ft
Heat Index 94 °F
Dew Point 72 °F
Humidity 62%
Rainfall 0.00 in
Snow Depth Not available.
UV 0.0 out of 12
Pollen 8.40 out of 12
Air Quality Not available.
Flu Activity Local Activity
METAR KLEE 251753Z 26008G17KT 10SM SCT043 BKN050 BKN060 30/21 A2989 RMK AO2 SLP120 T03000211 10306 20228 58024

More Conditions Fewer Conditions

Nowcast | as of 11:26 am EDT on April 25, 2015

isolated showers and lightning storms possible late this afternoon... Southeast winds will allow temperatures to climb into the upper 80s and lower 90s. A few showers and isolated lightning storms are expected to develop along and ahead of a West Coast sea breeze as it moves inland late this afternooon. A few strong storms will be possible late this afternoon...especially near the East Coast...with gusty winds in excess of 40 mph...frequent lightning and torrential rainfall possible. Ocean conditions will produce a moderate hazard for development of rip currents within the surf zone. When arriving at the beach check with lifeguards for the latest ocean conditions and never swim alone. Additional details...including graphics are available online at: http://www.Srh.NOAA.Gov/mlb/blog.Php

×

10-Day Weather Forecast

Almanac

Astronomy

Apr. 25, 2015 Rise Set
Actual Time
Civil Twilight
Nautical Twilight
Astronomical Twilight
Moon
Length of Visible Light
Length of Day
Tomorrow will be .
, % of the Moon is Illuminated

Today's Extremes

State Highs State Lows

Community

WunderPhotos

Upload Photos

1,816,765 photos uploaded!

WunderBlogs® & News

Nearby

Air Quality

  Air Quality AQ Index Pollutant
Not available.

Snow Depth

Station Depth Elevation

Earthquake Activity

City Distance Mag. Time & Date
Minimum magnitude displayed is 2.5.

Coastal Water Temperatures

Place Temperature

Stations

Nearby Weather Stations

Station Location Temp. Windchill Dew Point Humidity Wind Precip. Elev Updated Type